createdAt,value
2017-12-09T00:00:27.429Z,20.4
2017-12-09T00:00:55.515Z,20.32
2017-12-09T00:01:23.609Z,20.4
2017-12-09T00:01:51.704Z,20.34
2017-12-09T00:02:19.807Z,20.4
2017-12-09T00:02:47.928Z,20.42
2017-12-09T00:03:16.041Z,20.4
2017-12-09T00:03:44.159Z,20.38
2017-12-09T00:04:12.278Z,20.37
2017-12-09T00:04:40.377Z,20.42
2017-12-09T00:05:08.479Z,20.4
2017-12-09T00:05:36.617Z,20.42
2017-12-09T00:06:04.751Z,20.35
2017-12-09T00:06:32.862Z,20.4
2017-12-09T00:07:00.971Z,20.38
2017-12-09T00:07:29.064Z,20.3
2017-12-09T00:07:57.140Z,20.38
2017-12-09T00:08:25.226Z,20.34
2017-12-09T00:08:53.210Z,20.29
2017-12-09T00:09:21.231Z,20.35
2017-12-09T00:09:49.350Z,20.35
2017-12-09T00:10:17.510Z,20.3
2017-12-09T00:10:45.674Z,20.37
2017-12-09T00:11:13.676Z,20.37
2017-12-09T00:11:41.684Z,20.35
2017-12-09T00:12:09.695Z,20.35
2017-12-09T00:12:37.808Z,20.44
2017-12-09T00:13:05.894Z,20.35
2017-12-09T00:13:33.891Z,20.4
2017-12-09T00:14:01.845Z,20.4
2017-12-09T00:14:29.749Z,20.44
2017-12-09T00:14:57.752Z,20.46
2017-12-09T00:15:25.844Z,20.3
2017-12-09T00:15:54.008Z,20.42
2017-12-09T00:16:21.829Z,20.29
2017-12-09T00:16:49.827Z,20.35
2017-12-09T00:17:17.724Z,20.34
2017-12-09T00:17:45.827Z,20.27
2017-12-09T00:18:13.829Z,20.27
2017-12-09T00:18:41.830Z,20.38
2017-12-09T00:19:09.820Z,20.34
2017-12-09T00:19:37.821Z,20.3
2017-12-09T00:20:05.787Z,20.4
2017-12-09T00:20:33.796Z,20.26
2017-12-09T00:21:02.016Z,20.29
2017-12-09T00:21:29.804Z,20.37
2017-12-09T00:21:57.707Z,20.35
2017-12-09T00:22:25.713Z,20.23
2017-12-09T00:22:53.708Z,20.29
2017-12-09T00:23:21.800Z,20.19
2017-12-09T00:23:49.717Z,20.25
2017-12-09T00:24:17.745Z,20.23
2017-12-09T00:24:45.738Z,20.18
2017-12-09T00:25:13.675Z,20.16
2017-12-09T00:25:41.862Z,20.12
2017-12-09T00:26:09.867Z,20.11
2017-12-09T00:26:37.993Z,20.04
2017-12-09T00:27:06.103Z,20.1
2017-12-09T00:27:34.020Z,20.11
2017-12-09T00:28:01.954Z,20.05
2017-12-09T00:28:30.035Z,20.16
2017-12-09T00:28:57.909Z,20.15
2017-12-09T00:29:25.894Z,20.11
2017-12-09T00:29:53.897Z,20.08
2017-12-09T00:30:21.796Z,20.1
2017-12-09T00:30:49.920Z,20.1
2017-12-09T00:31:18.010Z,20.11
2017-12-09T00:31:46.115Z,20.12
2017-12-09T00:32:13.907Z,20.04
2017-12-09T00:32:41.887Z,20.11
2017-12-09T00:33:09.860Z,20.12
2017-12-09T00:33:37.976Z,20.08
2017-12-09T00:34:06.042Z,20.1
2017-12-09T00:34:33.935Z,20.07
2017-12-09T00:35:02.064Z,20.15
2017-12-09T00:35:29.963Z,20.05
2017-12-09T00:35:58.209Z,20.19
2017-12-09T00:36:26.327Z,20.11
2017-12-09T00:36:54.458Z,20.12
2017-12-09T00:37:22.446Z,20.2
2017-12-09T00:37:50.454Z,20.12
2017-12-09T00:38:18.443Z,20.12
2017-12-09T00:38:46.238Z,20.07
2017-12-09T00:39:14.150Z,20.04
2017-12-09T00:39:42.248Z,20.16
2017-12-09T00:40:10.364Z,20.18
2017-12-09T00:40:38.256Z,20.19
2017-12-09T00:41:06.351Z,20.16
2017-12-09T00:41:34.264Z,20.19
2017-12-09T00:42:02.367Z,20.15
2017-12-09T00:42:30.456Z,20.11
2017-12-09T00:42:58.474Z,20.15
2017-12-09T00:43:26.568Z,20.12
2017-12-09T00:43:54.544Z,20.16
2017-12-09T00:44:22.532Z,20.18
2017-12-09T00:44:50.631Z,20.19
2017-12-09T00:45:18.658Z,20.15
2017-12-09T00:45:46.753Z,20.12
2017-12-09T00:46:14.792Z,20.2
2017-12-09T00:46:42.917Z,20.25
2017-12-09T00:47:10.829Z,20.15
2017-12-09T00:47:38.855Z,20.29
2017-12-09T00:48:06.848Z,20.26
2017-12-09T00:48:34.959Z,20.22
2017-12-09T00:49:02.878Z,20.26
2017-12-09T00:49:30.864Z,20.23
2017-12-09T00:49:58.955Z,20.26
2017-12-09T00:50:27.078Z,20.23
2017-12-09T00:50:55.251Z,20.29
2017-12-09T00:51:23.312Z,20.22
2017-12-09T00:51:51.317Z,20.26
2017-12-09T00:52:19.336Z,20.23
2017-12-09T00:52:47.347Z,20.2
2017-12-09T00:53:15.443Z,20.18
2017-12-09T00:53:43.550Z,20.2
2017-12-09T00:54:11.462Z,20.16
2017-12-09T00:54:39.549Z,20.23
2017-12-09T00:55:07.572Z,20.2
2017-12-09T00:55:35.556Z,20.18
2017-12-09T00:56:03.718Z,20.18
2017-12-09T00:56:31.720Z,20.19
2017-12-09T00:56:59.821Z,20.18
2017-12-09T00:57:27.921Z,20.16
2017-12-09T00:57:55.926Z,20.2
2017-12-09T00:58:23.816Z,20.19
2017-12-09T00:58:51.905Z,20.12
2017-12-09T00:59:20.013Z,20.12
2017-12-09T00:59:47.927Z,20.22
2017-12-09T01:00:15.925Z,20.18
2017-12-09T01:00:44.088Z,20.18
2017-12-09T01:01:12.262Z,20.16
2017-12-09T01:01:40.302Z,20.16
2017-12-09T01:02:08.405Z,20.27
2017-12-09T01:02:36.289Z,20.18
2017-12-09T01:03:04.321Z,20.2
2017-12-09T01:03:32.240Z,20.19
2017-12-09T01:04:00.166Z,20.19
2017-12-09T01:04:28.267Z,20.16
2017-12-09T01:04:56.257Z,20.15
2017-12-09T01:05:24.075Z,20.15
2017-12-09T01:05:52.081Z,20.2
2017-12-09T01:06:20.313Z,20.22
2017-12-09T01:06:48.440Z,20.05
2017-12-09T01:07:16.518Z,20.15
2017-12-09T01:07:44.634Z,20.07
2017-12-09T01:08:12.643Z,20.11
2017-12-09T01:08:40.532Z,20.15
2017-12-09T01:09:08.563Z,20.1
2017-12-09T01:09:36.554Z,20.08
2017-12-09T01:10:04.540Z,20.11
2017-12-09T01:10:32.634Z,20.07
2017-12-09T01:11:00.532Z,20.04
2017-12-09T01:11:28.775Z,19.98
2017-12-09T01:11:56.669Z,20.08
2017-12-09T01:12:24.696Z,20.02
2017-12-09T01:12:52.706Z,19.95
2017-12-09T01:13:20.807Z,19.98
2017-12-09T01:13:48.919Z,20.01
2017-12-09T01:14:17.035Z,19.98
2017-12-09T01:14:45.141Z,19.98
2017-12-09T01:15:13.168Z,19.98
2017-12-09T01:15:41.260Z,19.9
2017-12-09T01:16:09.523Z,20.01
2017-12-09T01:16:37.614Z,20.07
2017-12-09T01:17:05.655Z,19.97
2017-12-09T01:17:33.637Z,20.05
2017-12-09T01:18:01.738Z,20.02
2017-12-09T01:18:29.875Z,20.04
2017-12-09T01:18:57.964Z,20
2017-12-09T01:19:25.983Z,20
2017-12-09T01:19:54.068Z,20.05
2017-12-09T01:20:21.961Z,20.01
2017-12-09T01:20:50.076Z,20.01
2017-12-09T01:21:18.254Z,20.02
2017-12-09T01:21:46.262Z,20.01
2017-12-09T01:22:14.198Z,19.97
2017-12-09T01:22:42.282Z,19.97
2017-12-09T01:23:10.363Z,19.92
2017-12-09T01:23:38.455Z,19.9
2017-12-09T01:24:06.241Z,19.92
2017-12-09T01:24:34.219Z,19.95
2017-12-09T01:25:02.142Z,19.89
2017-12-09T01:25:30.282Z,19.89
2017-12-09T01:25:58.230Z,19.95
2017-12-09T01:26:26.346Z,19.87
2017-12-09T01:26:54.266Z,19.97
2017-12-09T01:27:22.269Z,19.93
2017-12-09T01:27:50.365Z,19.98
2017-12-09T01:28:18.356Z,19.97
2017-12-09T01:28:46.365Z,19.98
2017-12-09T01:29:14.441Z,19.98
2017-12-09T01:29:42.355Z,20.01
2017-12-09T01:30:10.461Z,20
2017-12-09T01:30:38.363Z,19.97
2017-12-09T01:31:06.392Z,19.86
2017-12-09T01:31:34.606Z,19.92
2017-12-09T01:32:02.528Z,19.9
2017-12-09T01:32:30.505Z,19.97
2017-12-09T01:32:58.607Z,19.87
2017-12-09T01:33:26.626Z,19.92
2017-12-09T01:33:54.594Z,19.86
2017-12-09T01:34:22.688Z,19.89
2017-12-09T01:34:50.706Z,19.89
2017-12-09T01:35:18.813Z,19.82
2017-12-09T01:35:46.774Z,19.83
2017-12-09T01:36:14.605Z,19.8
2017-12-09T01:36:42.695Z,19.74
2017-12-09T01:37:10.612Z,19.67
2017-12-09T01:37:38.600Z,19.78
2017-12-09T01:38:06.602Z,19.72
2017-12-09T01:38:34.588Z,19.71
2017-12-09T01:39:02.640Z,19.63
2017-12-09T01:39:30.664Z,19.57
2017-12-09T01:39:58.637Z,19.56
2017-12-09T01:40:26.746Z,19.57
2017-12-09T01:40:54.772Z,19.67
2017-12-09T01:41:23.018Z,19.64
2017-12-09T01:41:51.022Z,19.57
2017-12-09T01:42:19.133Z,19.56
2017-12-09T01:42:47.248Z,19.47
2017-12-09T01:43:15.113Z,19.46
2017-12-09T01:43:43.009Z,19.56
2017-12-09T01:44:10.998Z,19.56
2017-12-09T01:44:38.997Z,19.55
2017-12-09T01:45:07.005Z,19.61
2017-12-09T01:45:35.015Z,19.53
2017-12-09T01:46:03.019Z,19.6
2017-12-09T01:46:31.244Z,19.52
2017-12-09T01:46:59.257Z,19.52
2017-12-09T01:47:27.260Z,19.56
2017-12-09T01:47:55.147Z,19.49
2017-12-09T01:48:23.168Z,19.52
2017-12-09T01:48:51.274Z,19.52
2017-12-09T01:49:19.255Z,19.55
2017-12-09T01:49:47.158Z,19.56
2017-12-09T01:50:15.129Z,19.56
2017-12-09T01:50:43.152Z,19.49
2017-12-09T01:51:10.944Z,19.56
2017-12-09T01:51:39.050Z,19.5
2017-12-09T01:52:07.127Z,19.47
2017-12-09T01:52:35.115Z,19.52
2017-12-09T01:53:03.205Z,19.53
2017-12-09T01:53:31.218Z,19.56
2017-12-09T01:53:59.148Z,19.55
2017-12-09T01:54:27.231Z,19.49
2017-12-09T01:54:55.108Z,19.53
2017-12-09T01:55:23.106Z,19.47
2017-12-09T01:55:51.204Z,19.5
2017-12-09T01:56:19.205Z,19.49
2017-12-09T01:56:47.296Z,19.55
2017-12-09T01:57:15.307Z,19.56
2017-12-09T01:57:43.351Z,19.53
2017-12-09T01:58:11.345Z,19.52
2017-12-09T01:58:39.373Z,19.56
2017-12-09T01:59:07.264Z,19.5
2017-12-09T01:59:35.359Z,19.57
2017-12-09T02:00:03.441Z,19.53
2017-12-09T02:00:31.530Z,19.53
2017-12-09T02:00:59.544Z,19.56
2017-12-09T02:01:27.421Z,19.56
2017-12-09T02:01:55.347Z,19.56
2017-12-09T02:02:23.261Z,19.61
2017-12-09T02:02:51.245Z,19.6
2017-12-09T02:03:19.143Z,19.61
2017-12-09T02:03:47.146Z,19.64
2017-12-09T02:04:15.244Z,19.56
2017-12-09T02:04:43.046Z,19.55
2017-12-09T02:05:11.051Z,19.61
2017-12-09T02:05:39.059Z,19.57
2017-12-09T02:06:07.176Z,19.6
2017-12-09T02:06:35.093Z,19.57
2017-12-09T02:07:03.183Z,19.63
2017-12-09T02:07:31.281Z,19.64
2017-12-09T02:07:59.393Z,19.55
2017-12-09T02:08:27.392Z,19.63
2017-12-09T02:08:55.498Z,19.63
2017-12-09T02:09:23.483Z,19.64
2017-12-09T02:09:51.573Z,19.6
2017-12-09T02:10:19.555Z,19.63
2017-12-09T02:10:47.452Z,19.61
2017-12-09T02:11:15.541Z,19.63
2017-12-09T02:11:43.447Z,19.57
2017-12-09T02:12:11.445Z,19.6
2017-12-09T02:12:39.531Z,19.61
2017-12-09T02:13:07.646Z,19.63
2017-12-09T02:13:35.552Z,19.6
2017-12-09T02:14:03.536Z,19.57
2017-12-09T02:14:31.439Z,19.63
2017-12-09T02:14:59.509Z,19.56
2017-12-09T02:15:27.605Z,19.57
2017-12-09T02:15:55.722Z,19.6
2017-12-09T02:16:23.834Z,19.65
2017-12-09T02:16:52.039Z,19.61
2017-12-09T02:17:20.157Z,19.63
2017-12-09T02:17:48.143Z,19.67
2017-12-09T02:18:16.156Z,19.67
2017-12-09T02:18:44.180Z,19.63
2017-12-09T02:19:12.225Z,19.67
2017-12-09T02:19:40.228Z,19.63
2017-12-09T02:20:08.227Z,19.67
2017-12-09T02:20:36.130Z,19.65
2017-12-09T02:21:04.257Z,19.6
2017-12-09T02:21:32.255Z,19.67
2017-12-09T02:22:00.462Z,19.65
2017-12-09T02:22:28.441Z,19.7
2017-12-09T02:22:56.527Z,19.64
2017-12-09T02:23:24.551Z,19.72
2017-12-09T02:23:52.540Z,19.71
2017-12-09T02:24:20.431Z,19.75
2017-12-09T02:24:48.529Z,19.78
2017-12-09T02:25:16.433Z,19.79
2017-12-09T02:25:44.536Z,19.7
2017-12-09T02:26:12.619Z,19.71
2017-12-09T02:26:40.498Z,19.7
2017-12-09T02:27:08.529Z,19.72
2017-12-09T02:27:36.574Z,19.74
2017-12-09T02:28:04.594Z,19.74
2017-12-09T02:28:32.587Z,19.68
2017-12-09T02:29:00.718Z,19.79
2017-12-09T02:29:28.650Z,19.72
2017-12-09T02:29:56.746Z,19.72
2017-12-09T02:30:24.749Z,19.74
2017-12-09T02:30:52.750Z,19.78
2017-12-09T02:31:20.896Z,19.75
2017-12-09T02:31:49.106Z,19.7
2017-12-09T02:32:17.105Z,19.74
2017-12-09T02:32:45.249Z,19.78
2017-12-09T02:33:13.157Z,19.78
2017-12-09T02:33:41.070Z,19.71
2017-12-09T02:34:09.053Z,19.71
2017-12-09T02:34:37.075Z,19.72
2017-12-09T02:35:04.878Z,19.72
2017-12-09T02:35:32.872Z,19.83
2017-12-09T02:36:00.976Z,19.74
2017-12-09T02:36:28.989Z,19.86
2017-12-09T02:36:57.209Z,19.71
2017-12-09T02:37:25.250Z,19.72
2017-12-09T02:37:53.183Z,19.75
2017-12-09T02:38:21.206Z,19.72
2017-12-09T02:38:49.199Z,19.82
2017-12-09T02:39:17.221Z,19.82
2017-12-09T02:39:45.341Z,19.7
2017-12-09T02:40:13.465Z,19.71
2017-12-09T02:40:41.404Z,19.72
2017-12-09T02:41:09.312Z,19.74
2017-12-09T02:41:37.323Z,19.75
2017-12-09T02:42:05.538Z,19.71
2017-12-09T02:42:33.433Z,19.71
2017-12-09T02:43:01.429Z,19.71
2017-12-09T02:43:29.530Z,19.74
2017-12-09T02:43:57.644Z,19.75
2017-12-09T02:44:25.662Z,19.83
2017-12-09T02:44:53.648Z,19.71
2017-12-09T02:45:21.563Z,19.75
2017-12-09T02:45:49.452Z,19.71
2017-12-09T02:46:17.351Z,19.74
2017-12-09T02:46:45.445Z,19.72
2017-12-09T02:47:13.557Z,19.78
2017-12-09T02:47:41.644Z,19.7
2017-12-09T02:48:09.664Z,19.72
2017-12-09T02:48:37.680Z,19.75
2017-12-09T02:49:05.769Z,19.75
2017-12-09T02:49:33.880Z,19.72
2017-12-09T02:50:01.871Z,19.68
2017-12-09T02:50:30.020Z,19.78
2017-12-09T02:50:58.099Z,19.78
2017-12-09T02:51:26.175Z,19.71
2017-12-09T02:51:54.259Z,19.64
2017-12-09T02:52:22.377Z,19.64
2017-12-09T02:52:50.283Z,19.63
2017-12-09T02:53:18.293Z,19.67
2017-12-09T02:53:46.263Z,19.65
2017-12-09T02:54:14.254Z,19.65
2017-12-09T02:54:42.331Z,19.57
2017-12-09T02:55:10.345Z,19.57
2017-12-09T02:55:38.241Z,19.63
2017-12-09T02:56:06.135Z,19.6
2017-12-09T02:56:34.267Z,19.56
2017-12-09T02:57:02.365Z,19.61
2017-12-09T02:57:30.469Z,19.64
2017-12-09T02:57:58.591Z,19.67
2017-12-09T02:58:26.581Z,19.67
2017-12-09T02:58:54.579Z,19.6
2017-12-09T02:59:22.598Z,19.71
2017-12-09T02:59:50.594Z,19.67
2017-12-09T03:00:18.498Z,19.65
2017-12-09T03:00:46.180Z,19.64
2017-12-09T03:01:14.192Z,19.72
2017-12-09T03:01:42.309Z,19.75
2017-12-09T03:02:10.512Z,19.74
2017-12-09T03:02:38.627Z,19.79
2017-12-09T03:03:06.726Z,19.7
2017-12-09T03:03:34.618Z,19.71
2017-12-09T03:04:02.622Z,19.74
2017-12-09T03:04:30.742Z,19.75
2017-12-09T03:04:58.856Z,19.75
2017-12-09T03:05:26.922Z,19.72
2017-12-09T03:05:54.881Z,19.74
2017-12-09T03:06:22.796Z,19.79
2017-12-09T03:06:50.800Z,19.72
2017-12-09T03:07:18.984Z,19.78
2017-12-09T03:07:47.063Z,19.8
2017-12-09T03:08:14.942Z,19.72
2017-12-09T03:08:42.759Z,19.75
2017-12-09T03:09:10.858Z,19.83
2017-12-09T03:09:38.934Z,19.79
2017-12-09T03:10:07.035Z,19.82
2017-12-09T03:10:35.002Z,19.8
2017-12-09T03:11:03.083Z,19.82
2017-12-09T03:11:31.167Z,19.82
2017-12-09T03:11:59.145Z,19.8
2017-12-09T03:12:27.295Z,19.82
2017-12-09T03:12:55.315Z,19.86
2017-12-09T03:13:23.343Z,19.85
2017-12-09T03:13:51.460Z,19.79
2017-12-09T03:14:19.429Z,19.82
2017-12-09T03:14:47.338Z,19.83
2017-12-09T03:15:15.239Z,19.82
2017-12-09T03:15:43.232Z,19.86
2017-12-09T03:16:11.316Z,19.82
2017-12-09T03:16:39.442Z,19.85
2017-12-09T03:17:07.541Z,19.83
2017-12-09T03:17:35.701Z,19.86
2017-12-09T03:18:03.584Z,19.83
2017-12-09T03:18:31.492Z,19.82
2017-12-09T03:18:59.396Z,19.86
2017-12-09T03:19:27.399Z,19.9
2017-12-09T03:19:55.501Z,19.9
2017-12-09T03:20:23.590Z,19.87
2017-12-09T03:20:51.615Z,19.86
2017-12-09T03:21:19.728Z,19.86
2017-12-09T03:21:47.735Z,19.86
2017-12-09T03:22:15.766Z,19.9
2017-12-09T03:22:43.855Z,19.78
2017-12-09T03:23:11.792Z,19.82
2017-12-09T03:23:39.675Z,19.8
2017-12-09T03:24:07.759Z,19.8
2017-12-09T03:24:35.776Z,19.86
2017-12-09T03:25:03.598Z,19.85
2017-12-09T03:25:31.687Z,19.83
2017-12-09T03:25:59.803Z,19.86
2017-12-09T03:26:27.903Z,19.82
2017-12-09T03:26:55.998Z,19.86
2017-12-09T03:27:24.103Z,19.87
2017-12-09T03:27:52.091Z,19.82
2017-12-09T03:28:20.209Z,19.85
2017-12-09T03:28:48.336Z,19.83
2017-12-09T03:29:16.447Z,19.8
2017-12-09T03:29:44.565Z,19.82
2017-12-09T03:30:12.438Z,19.8
2017-12-09T03:30:40.565Z,19.85
2017-12-09T03:31:08.646Z,19.89
2017-12-09T03:31:36.630Z,19.82
2017-12-09T03:32:04.523Z,19.82
2017-12-09T03:32:32.653Z,19.82
2017-12-09T03:33:00.740Z,19.82
2017-12-09T03:33:28.667Z,19.86
2017-12-09T03:33:56.716Z,19.8
2017-12-09T03:34:24.701Z,19.82
2017-12-09T03:34:52.766Z,19.79
2017-12-09T03:35:20.900Z,19.8
2017-12-09T03:35:48.838Z,19.85
2017-12-09T03:36:16.858Z,19.78
2017-12-09T03:36:44.853Z,19.83
2017-12-09T03:37:12.936Z,19.79
2017-12-09T03:37:40.948Z,19.82
2017-12-09T03:38:09.063Z,19.86
2017-12-09T03:38:37.185Z,19.82
2017-12-09T03:39:05.104Z,19.8
2017-12-09T03:39:33.096Z,19.86
2017-12-09T03:40:01.016Z,19.83
2017-12-09T03:40:29.060Z,19.78
2017-12-09T03:40:57.173Z,19.8
2017-12-09T03:41:25.079Z,19.8
2017-12-09T03:41:53.098Z,19.82
2017-12-09T03:42:21.000Z,19.78
2017-12-09T03:42:49.102Z,19.92
2017-12-09T03:43:17.206Z,19.82
2017-12-09T03:43:45.096Z,19.89
2017-12-09T03:44:13.170Z,19.89
2017-12-09T03:44:41.193Z,19.97
2017-12-09T03:45:09.306Z,19.9
2017-12-09T03:45:37.219Z,19.9
2017-12-09T03:46:05.314Z,19.89
2017-12-09T03:46:33.097Z,19.87
2017-12-09T03:47:01.008Z,19.95
2017-12-09T03:47:29.223Z,19.95
2017-12-09T03:47:57.251Z,19.95
2017-12-09T03:48:25.270Z,19.9
2017-12-09T03:48:53.274Z,19.92
2017-12-09T03:49:21.149Z,19.95
2017-12-09T03:49:48.944Z,19.89
2017-12-09T03:50:16.944Z,19.89
2017-12-09T03:50:44.927Z,19.95
2017-12-09T03:51:12.918Z,19.9
2017-12-09T03:51:40.927Z,19.87
2017-12-09T03:52:08.838Z,19.87
2017-12-09T03:52:36.956Z,19.85
2017-12-09T03:53:04.940Z,19.92
2017-12-09T03:53:33.040Z,19.93
2017-12-09T03:54:00.936Z,19.9
2017-12-09T03:54:29.050Z,19.86
2017-12-09T03:54:57.040Z,19.83
2017-12-09T03:55:25.171Z,19.92
2017-12-09T03:55:53.206Z,19.89
2017-12-09T03:56:21.229Z,19.97
2017-12-09T03:56:49.329Z,19.98
2017-12-09T03:57:17.270Z,19.95
2017-12-09T03:57:45.593Z,19.97
2017-12-09T03:58:13.602Z,19.89
2017-12-09T03:58:41.441Z,19.9
2017-12-09T03:59:09.550Z,19.9
2017-12-09T03:59:37.446Z,19.9
2017-12-09T04:00:05.565Z,19.93
2017-12-09T04:00:33.650Z,19.93
2017-12-09T04:01:01.650Z,19.95
2017-12-09T04:01:29.688Z,19.97
2017-12-09T04:01:57.803Z,19.83
2017-12-09T04:02:25.818Z,19.87
2017-12-09T04:02:53.887Z,19.97
2017-12-09T04:03:21.802Z,19.95
2017-12-09T04:03:49.803Z,19.89
2017-12-09T04:04:17.819Z,19.97
2017-12-09T04:04:45.868Z,19.97
2017-12-09T04:05:13.729Z,19.89
2017-12-09T04:05:41.745Z,19.86
2017-12-09T04:06:09.842Z,19.98
2017-12-09T04:06:37.760Z,19.97
2017-12-09T04:07:05.888Z,19.92
2017-12-09T04:07:34.030Z,19.89
2017-12-09T04:08:02.207Z,19.9
2017-12-09T04:08:30.321Z,19.89
2017-12-09T04:08:58.409Z,19.89
2017-12-09T04:09:26.425Z,19.87
2017-12-09T04:09:54.450Z,19.87
2017-12-09T04:10:22.445Z,19.95
2017-12-09T04:10:50.456Z,19.83
2017-12-09T04:11:18.465Z,19.83
2017-12-09T04:11:46.454Z,19.83
2017-12-09T04:12:14.491Z,19.87
2017-12-09T04:12:42.665Z,19.8
2017-12-09T04:13:10.714Z,19.92
2017-12-09T04:13:38.801Z,19.82
2017-12-09T04:14:06.797Z,19.9
2017-12-09T04:14:34.876Z,19.86
2017-12-09T04:15:02.776Z,19.87
2017-12-09T04:15:30.873Z,19.83
2017-12-09T04:15:58.759Z,19.85
2017-12-09T04:16:26.636Z,19.87
2017-12-09T04:16:54.531Z,19.82
2017-12-09T04:17:22.447Z,19.87
2017-12-09T04:17:50.658Z,19.82
2017-12-09T04:18:18.743Z,19.79
2017-12-09T04:18:46.715Z,19.79
2017-12-09T04:19:14.599Z,19.85
2017-12-09T04:19:42.491Z,19.85
2017-12-09T04:20:10.612Z,19.78
2017-12-09T04:20:38.723Z,19.83
2017-12-09T04:21:06.805Z,19.86
2017-12-09T04:21:34.946Z,19.82
2017-12-09T04:22:03.051Z,19.82
2017-12-09T04:22:30.956Z,19.82
2017-12-09T04:22:59.197Z,19.85
2017-12-09T04:23:27.198Z,19.9
2017-12-09T04:23:55.187Z,19.93
2017-12-09T04:24:23.198Z,19.92
2017-12-09T04:24:51.222Z,19.93
2017-12-09T04:25:19.126Z,19.9
2017-12-09T04:25:47.237Z,19.9
2017-12-09T04:26:15.150Z,19.93
2017-12-09T04:26:43.154Z,19.89
2017-12-09T04:27:11.272Z,19.87
2017-12-09T04:27:39.271Z,19.89
2017-12-09T04:28:07.367Z,19.89
2017-12-09T04:28:35.467Z,19.92
2017-12-09T04:29:03.569Z,19.9
2017-12-09T04:29:31.679Z,19.9
2017-12-09T04:29:59.604Z,19.93
2017-12-09T04:30:27.624Z,19.93
2017-12-09T04:30:55.694Z,19.85
2017-12-09T04:31:23.613Z,19.86
2017-12-09T04:31:51.691Z,19.87
2017-12-09T04:32:19.459Z,19.92
2017-12-09T04:32:47.437Z,19.89
2017-12-09T04:33:15.645Z,19.8
2017-12-09T04:33:43.518Z,19.92
2017-12-09T04:34:11.420Z,19.95
2017-12-09T04:34:39.329Z,19.85
2017-12-09T04:35:07.427Z,19.86
2017-12-09T04:35:35.522Z,19.83
2017-12-09T04:36:03.616Z,19.86
2017-12-09T04:36:31.622Z,19.87
2017-12-09T04:36:59.712Z,19.95
2017-12-09T04:37:27.811Z,19.9
2017-12-09T04:37:55.867Z,19.9
2017-12-09T04:38:23.967Z,19.92
2017-12-09T04:38:51.944Z,19.89
2017-12-09T04:39:20.053Z,19.9
2017-12-09T04:39:48.047Z,19.92
2017-12-09T04:40:16.120Z,19.85
2017-12-09T04:40:44.038Z,19.78
2017-12-09T04:41:11.955Z,19.85
2017-12-09T04:41:40.040Z,19.83
2017-12-09T04:42:08.143Z,19.83
2017-12-09T04:42:36.235Z,19.86
2017-12-09T04:43:04.354Z,19.8
2017-12-09T04:43:32.175Z,19.8
2017-12-09T04:44:00.283Z,19.8
2017-12-09T04:44:28.418Z,19.87
2017-12-09T04:44:56.330Z,19.79
2017-12-09T04:45:24.407Z,19.82
2017-12-09T04:45:52.417Z,19.83
2017-12-09T04:46:20.430Z,19.82
2017-12-09T04:46:48.418Z,19.82
2017-12-09T04:47:16.506Z,19.82
2017-12-09T04:47:44.518Z,19.82
2017-12-09T04:48:12.701Z,19.82
2017-12-09T04:48:40.676Z,19.82
2017-12-09T04:49:08.779Z,19.79
2017-12-09T04:49:36.849Z,19.83
2017-12-09T04:50:04.950Z,19.85
2017-12-09T04:50:33.032Z,19.85
2017-12-09T04:51:01.037Z,19.8
2017-12-09T04:51:29.045Z,19.82
2017-12-09T04:51:57.138Z,19.8
2017-12-09T04:52:25.267Z,19.7
2017-12-09T04:52:53.262Z,19.7
2017-12-09T04:53:21.363Z,19.74
2017-12-09T04:53:49.268Z,19.74
2017-12-09T04:54:17.377Z,19.75
2017-12-09T04:54:45.407Z,19.79
2017-12-09T04:55:13.406Z,19.72
2017-12-09T04:55:41.381Z,19.79
2017-12-09T04:56:09.475Z,19.82
2017-12-09T04:56:37.463Z,19.74
2017-12-09T04:57:05.590Z,19.75
2017-12-09T04:57:33.610Z,19.74
2017-12-09T04:58:01.607Z,19.71
2017-12-09T04:58:29.749Z,19.72
2017-12-09T04:58:57.748Z,19.79
2017-12-09T04:59:25.749Z,19.74
2017-12-09T04:59:53.748Z,19.72
2017-12-09T05:00:21.809Z,19.74
2017-12-09T05:00:49.833Z,19.7
2017-12-09T05:01:17.736Z,19.71
2017-12-09T05:01:45.854Z,19.72
2017-12-09T05:02:13.717Z,19.72
2017-12-09T05:02:41.702Z,19.71
2017-12-09T05:03:09.800Z,19.75
2017-12-09T05:03:37.941Z,19.78
2017-12-09T05:04:05.939Z,19.7
2017-12-09T05:04:33.966Z,19.71
2017-12-09T05:05:02.053Z,19.78
2017-12-09T05:05:30.049Z,19.74
2017-12-09T05:05:58.042Z,19.78
2017-12-09T05:06:26.028Z,19.74
2017-12-09T05:06:53.902Z,19.74
2017-12-09T05:07:21.981Z,19.72
2017-12-09T05:07:50.004Z,19.74
2017-12-09T05:08:18.119Z,19.72
2017-12-09T05:08:46.221Z,19.82
2017-12-09T05:09:14.217Z,19.82
2017-12-09T05:09:42.331Z,19.72
2017-12-09T05:10:10.449Z,19.78
2017-12-09T05:10:38.564Z,19.8
2017-12-09T05:11:06.652Z,19.82
2017-12-09T05:11:34.639Z,19.82
2017-12-09T05:12:02.547Z,19.79
2017-12-09T05:12:30.544Z,19.82
2017-12-09T05:12:58.532Z,19.82
2017-12-09T05:13:26.792Z,19.75
2017-12-09T05:13:54.864Z,19.83
2017-12-09T05:14:22.778Z,19.83
2017-12-09T05:14:50.869Z,19.85
2017-12-09T05:15:18.853Z,19.8
2017-12-09T05:15:46.871Z,19.8
2017-12-09T05:16:14.772Z,19.85
2017-12-09T05:16:42.877Z,19.83
2017-12-09T05:17:10.978Z,19.8
2017-12-09T05:17:39.056Z,19.82
2017-12-09T05:18:07.059Z,19.83
2017-12-09T05:18:35.113Z,19.8
2017-12-09T05:19:03.093Z,19.86
2017-12-09T05:19:31.081Z,19.8
2017-12-09T05:19:59.091Z,19.83
2017-12-09T05:20:27.104Z,19.85
2017-12-09T05:20:55.021Z,19.83
2017-12-09T05:21:23.116Z,19.83
2017-12-09T05:21:51.202Z,19.8
2017-12-09T05:22:19.316Z,19.82
2017-12-09T05:22:47.407Z,19.86
2017-12-09T05:23:15.420Z,19.83
2017-12-09T05:23:43.429Z,19.82
2017-12-09T05:24:11.458Z,19.85
2017-12-09T05:24:39.567Z,19.78
2017-12-09T05:25:07.685Z,19.78
2017-12-09T05:25:35.792Z,19.8
2017-12-09T05:26:03.784Z,19.79
2017-12-09T05:26:31.727Z,19.82
2017-12-09T05:26:59.804Z,19.83
2017-12-09T05:27:27.912Z,19.74
2017-12-09T05:27:55.931Z,19.82
2017-12-09T05:28:23.836Z,19.86
2017-12-09T05:28:51.842Z,19.82
2017-12-09T05:29:19.949Z,19.8
2017-12-09T05:29:48.058Z,19.85
2017-12-09T05:30:15.947Z,19.85
2017-12-09T05:30:43.969Z,19.85
2017-12-09T05:31:11.891Z,19.86
2017-12-09T05:31:39.774Z,19.86
2017-12-09T05:32:07.857Z,19.83
2017-12-09T05:32:35.969Z,19.87
2017-12-09T05:33:04.093Z,19.8
2017-12-09T05:33:32.016Z,19.79
2017-12-09T05:34:00.027Z,19.79
2017-12-09T05:34:28.136Z,19.86
2017-12-09T05:34:56.250Z,19.83
2017-12-09T05:35:24.382Z,19.86
2017-12-09T05:35:52.409Z,19.78
2017-12-09T05:36:20.518Z,19.75
2017-12-09T05:36:48.512Z,19.9
2017-12-09T05:37:16.414Z,19.78
2017-12-09T05:37:44.424Z,19.79
2017-12-09T05:38:12.327Z,19.85
2017-12-09T05:38:40.373Z,19.85
2017-12-09T05:39:08.374Z,19.79
2017-12-09T05:39:36.291Z,19.82
2017-12-09T05:40:04.333Z,19.8
2017-12-09T05:40:32.221Z,19.8
2017-12-09T05:41:00.340Z,19.82
2017-12-09T05:41:28.320Z,19.8
2017-12-09T05:41:56.428Z,19.82
2017-12-09T05:42:24.423Z,19.8
2017-12-09T05:42:52.412Z,19.83
2017-12-09T05:43:20.520Z,19.86
2017-12-09T05:43:48.627Z,19.78
2017-12-09T05:44:16.630Z,19.9
2017-12-09T05:44:44.739Z,19.79
2017-12-09T05:45:12.835Z,19.82
2017-12-09T05:45:40.850Z,19.8
2017-12-09T05:46:08.723Z,19.83
2017-12-09T05:46:36.741Z,19.83
2017-12-09T05:47:04.662Z,19.87
2017-12-09T05:47:32.775Z,19.82
2017-12-09T05:48:00.798Z,19.9
2017-12-09T05:48:28.794Z,19.86
2017-12-09T05:48:57.053Z,19.8
2017-12-09T05:49:25.057Z,19.85
2017-12-09T05:49:52.963Z,19.82
2017-12-09T05:50:20.965Z,19.8
2017-12-09T05:50:49.082Z,19.8
2017-12-09T05:51:17.190Z,19.82
2017-12-09T05:51:45.310Z,19.82
2017-12-09T05:52:13.415Z,19.79
2017-12-09T05:52:41.510Z,19.8
2017-12-09T05:53:09.507Z,19.79
2017-12-09T05:53:37.679Z,19.82
2017-12-09T05:54:05.687Z,19.79
2017-12-09T05:54:33.797Z,19.83
2017-12-09T05:55:01.679Z,19.89
2017-12-09T05:55:29.627Z,19.89
2017-12-09T05:55:57.713Z,19.92
2017-12-09T05:56:25.730Z,19.87
2017-12-09T05:56:53.765Z,19.9
2017-12-09T05:57:21.757Z,19.9
2017-12-09T05:57:49.777Z,19.92
2017-12-09T05:58:17.884Z,19.89
2017-12-09T05:58:45.972Z,19.87
2017-12-09T05:59:13.959Z,19.89
2017-12-09T05:59:41.822Z,19.89
2017-12-09T06:00:09.833Z,19.92
2017-12-09T06:00:37.904Z,19.86
2017-12-09T06:01:05.904Z,19.9
2017-12-09T06:01:33.993Z,19.95
2017-12-09T06:02:01.955Z,19.89
2017-12-09T06:02:30.029Z,19.93
2017-12-09T06:02:57.811Z,19.95